Time;durP1;ratioP1;P1;durP2;ratioP2;P2;SDS_P1;SDS_P2;PMS_P1;PMS_P2;Temp;Humidity;BMP_temperature;BMP_pressure;BME280_temperature;BME280_humidity;BME280_pressure;Samples;Min_cycle;Max_cycle;Signal;HPM_P1;HPM_P2
2021/07/25 00:02:25;;;;;;;27.00;10.80;;;22.00;63.30;;;;;;5016900;28;20474;-89
2021/07/25 00:04:52;;;;;;;34.37;13.87;;;22.40;61.30;;;;;;5017043;28;20476;-89
2021/07/25 00:07:21;;;;;;;29.57;13.30;;;22.60;61.00;;;;;;5016743;28;20548;-88
2021/07/25 00:09:48;;;;;;;31.47;10.50;;;22.50;61.70;;;;;;5016422;28;20493;-88
2021/07/25 00:12:16;;;;;;;22.70;11.20;;;22.40;62.30;;;;;;5016051;28;20584;-88
2021/07/25 00:14:43;;;;;;;26.03;12.10;;;22.40;61.80;;;;;;5016621;28;20450;-89
2021/07/25 00:17:10;;;;;;;21.03;10.37;;;22.90;60.70;;;;;;5016569;28;20496;-89
2021/07/25 00:19:37;;;;;;;26.30;11.63;;;23.20;59.00;;;;;;5016820;28;20536;-88
2021/07/25 00:22:04;;;;;;;34.37;11.57;;;23.40;58.80;;;;;;5016475;28;20529;-89
2021/07/25 00:24:34;;;;;;;24.13;10.30;;;23.60;57.60;;;;;;5016323;28;21019;-89
2021/07/25 00:27:01;;;;;;;17.50;10.00;;;23.90;55.20;;;;;;5018031;28;20481;-89
2021/07/25 00:29:33;;;;;;;18.17;10.43;;;24.10;55.80;;;;;;5019067;28;20994;-88
2021/07/25 00:32:01;;;;;;;30.10;10.73;;;24.10;55.40;;;;;;5016376;28;20557;-88
2021/07/25 00:34:29;;;;;;;18.83;10.30;;;24.20;55.50;;;;;;5015916;28;20541;-88
2021/07/25 00:36:57;;;;;;;12.57;8.27;;;24.10;55.50;;;;;;5015790;28;20454;-88
2021/07/25 00:39:24;;;;;;;16.20;9.87;;;24.20;54.40;;;;;;5016067;28;20537;-88
2021/07/25 00:41:51;;;;;;;20.23;9.93;;;24.20;55.50;;;;;;5015968;28;20533;-88
2021/07/25 00:44:18;;;;;;;20.73;10.23;;;24.00;56.10;;;;;;5016078;28;20525;-88
2021/07/25 00:46:52;;;;;;;24.20;10.67;;;24.00;56.00;;;;;;5016695;28;20948;-88
2021/07/25 00:49:19;;;;;;;17.37;10.13;;;24.10;55.60;;;;;;5016306;28;20461;-88
2021/07/25 00:51:47;;;;;;;15.07;8.07;;;24.10;55.40;;;;;;5015715;28;20481;-87
2021/07/25 00:54:14;;;;;;;18.70;8.57;;;23.80;55.10;;;;;;5016776;28;20434;-88
2021/07/25 00:56:41;;;;;;;31.00;10.10;;;23.90;55.50;;;;;;5017580;28;20478;-88
2021/07/25 00:59:08;;;;;;;12.50;8.47;;;24.10;55.40;;;;;;5017348;28;20545;-88
2021/07/25 01:01:35;;;;;;;22.73;8.47;;;24.00;54.40;;;;;;5015624;28;20878;-88
2021/07/25 01:04:14;;;;;;;16.20;9.60;;;23.90;55.20;;;;;;5015396;28;20556;-88
2021/07/25 01:06:55;;;;;;;23.03;9.37;;;24.00;55.60;;;;;;5015889;28;20512;-88
2021/07/25 01:09:29;;;;;;;16.93;9.07;;;24.00;55.20;;;;;;5015064;28;20954;-89
2021/07/25 01:11:58;;;;;;;23.73;10.90;;;24.00;55.10;;;;;;5015374;28;20461;-88
2021/07/25 01:14:28;;;;;;;20.03;10.07;;;24.10;55.40;;;;;;5016595;28;20981;-88
2021/07/25 01:17:24;;;;;;;15.67;9.90;;;24.10;55.40;;;;;;5035349;28;20426;-88
2021/07/25 01:19:53;;;;;;;21.00;9.30;;;24.00;54.80;;;;;;5024198;28;20450;-88
2021/07/25 01:22:22;;;;;;;18.57;10.60;;;23.80;55.60;;;;;;5022874;28;20485;-88
2021/07/25 01:24:49;;;;;;;18.63;10.50;;;23.60;56.60;;;;;;5020169;28;20954;-88
2021/07/25 01:27:22;;;;;;;21.33;10.90;;;23.70;56.60;;;;;;5018779;28;20458;-88
2021/07/25 01:29:54;;;;;;;21.60;10.80;;;23.90;55.90;;;;;;5018944;28;20529;-88
2021/07/25 01:32:22;;;;;;;26.10;11.17;;;23.90;55.70;;;;;;5021205;28;20561;-88
2021/07/25 01:34:50;;;;;;;18.37;9.90;;;23.80;55.50;;;;;;5032368;28;20465;-87
2021/07/25 01:37:19;;;;;;;10.77;7.67;;;23.70;56.00;;;;;;5028902;28;20454;-88
2021/07/25 01:39:46;;;;;;;10.77;7.33;;;23.70;55.00;;;;;;5029302;28;20438;-87
2021/07/25 01:42:13;;;;;;;12.80;8.83;;;23.90;54.70;;;;;;5033632;28;20481;-88
2021/07/25 01:44:40;;;;;;;19.10;10.70;;;24.00;55.10;;;;;;5035070;28;20450;-88
2021/07/25 01:47:07;;;;;;;22.40;10.90;;;23.90;56.00;;;;;;5036611;28;20425;-88
2021/07/25 01:49:34;;;;;;;24.73;10.60;;;23.90;56.80;;;;;;5037450;28;20449;-88
2021/07/25 01:52:01;;;;;;;22.00;10.43;;;23.60;56.40;;;;;;5037678;28;20481;-87
2021/07/25 01:54:29;;;;;;;16.10;11.13;;;23.80;56.70;;;;;;5035871;28;20445;-88
2021/07/25 01:56:56;;;;;;;21.50;10.87;;;23.70;56.70;;;;;;5036733;28;20442;-88
2021/07/25 01:59:23;;;;;;;26.33;10.87;;;23.60;57.30;;;;;;5037280;28;20497;-87
2021/07/25 02:01:50;;;;;;;19.33;10.03;;;23.80;56.60;;;;;;5036036;28;20438;-87
2021/07/25 02:04:17;;;;;;;13.77;8.60;;;23.80;56.60;;;;;;5036374;28;20454;-87
2021/07/25 02:06:43;;;;;;;22.83;8.53;;;23.80;55.10;;;;;;5036774;28;20434;-87
2021/07/25 02:09:13;;;;;;;17.67;10.00;;;23.90;54.80;;;;;;5036546;28;20442;-87
2021/07/25 02:11:41;;;;;;;23.97;11.23;;;23.90;55.20;;;;;;5036707;28;20528;-87
2021/07/25 02:14:09;;;;;;;15.27;9.57;;;23.80;55.70;;;;;;5035862;28;21009;-87
2021/07/25 02:16:37;;;;;;;17.53;9.70;;;23.80;56.90;;;;;;5037875;28;20430;-87
2021/07/25 02:19:04;;;;;;;33.00;11.20;;;23.90;55.20;;;;;;5037354;28;20469;-87
2021/07/25 02:21:31;;;;;;;17.03;8.57;;;24.00;55.30;;;;;;5037648;28;20485;-87
2021/07/25 02:23:58;;;;;;;16.50;10.30;;;24.10;54.10;;;;;;5037430;28;20446;-87
2021/07/25 02:26:25;;;;;;;17.67;11.33;;;24.00;55.30;;;;;;5037308;28;20446;-87
2021/07/25 02:28:53;;;;;;;13.33;10.10;;;23.60;56.40;;;;;;5036408;28;20474;-87
2021/07/25 02:31:20;;;;;;;24.93;11.47;;;23.50;57.10;;;;;;5021368;28;20875;-88
2021/07/25 02:33:47;;;;;;;31.77;10.20;;;23.60;57.60;;;;;;5014112;28;20895;-88
2021/07/25 02:36:14;;;;;;;11.67;7.77;;;23.60;56.80;;;;;;5015660;28;20437;-88
2021/07/25 02:38:40;;;;;;;22.57;11.73;;;23.60;56.70;;;;;;5015591;28;20465;-87
2021/07/25 02:41:07;;;;;;;34.40;10.97;;;23.50;56.60;;;;;;5015513;28;20831;-88
2021/07/25 02:43:34;;;;;;;35.70;11.37;;;23.60;57.60;;;;;;5015630;28;20462;-88
2021/07/25 02:46:02;;;;;;;17.43;10.30;;;23.70;56.80;;;;;;5015019;28;20452;-88
2021/07/25 02:48:30;;;;;;;18.03;8.60;;;23.60;57.10;;;;;;5015451;28;20862;-88
2021/07/25 02:50:58;;;;;;;16.13;10.03;;;23.40;57.30;;;;;;5015276;28;20462;-88
2021/07/25 02:53:25;;;;;;;18.77;10.73;;;23.50;57.30;;;;;;5015062;28;20557;-88
2021/07/25 02:55:53;;;;;;;21.43;10.80;;;23.50;57.20;;;;;;5015115;28;20508;-88
2021/07/25 02:58:20;;;;;;;16.70;10.43;;;23.60;56.90;;;;;;5014429;28;20491;-88
2021/07/25 03:00:47;;;;;;;18.47;11.10;;;23.70;56.50;;;;;;5014102;28;20880;-88
2021/07/25 03:03:15;;;;;;;18.93;9.30;;;23.60;56.80;;;;;;5013571;28;20536;-88
2021/07/25 03:05:42;;;;;;;17.30;10.30;;;23.60;55.40;;;;;;5013756;28;20481;-88
2021/07/25 03:08:09;;;;;;;19.03;10.60;;;23.70;56.10;;;;;;5014252;28;20429;-88
2021/07/25 03:10:36;;;;;;;24.20;11.40;;;23.80;56.40;;;;;;5014467;28;20453;-88
2021/07/25 03:13:03;;;;;;;19.77;11.37;;;23.80;56.60;;;;;;5013818;28;20853;-88
2021/07/25 03:15:30;;;;;;;24.33;11.47;;;23.70;56.70;;;;;;5016750;28;20450;-88
2021/07/25 03:17:57;;;;;;;20.30;9.83;;;23.40;57.30;;;;;;5017942;28;20874;-88
2021/07/25 03:20:26;;;;;;;25.17;11.57;;;23.50;56.40;;;;;;5017793;28;20548;-88
2021/07/25 03:22:53;;;;;;;18.20;11.07;;;23.60;56.50;;;;;;5017812;28;20535;-88
2021/07/25 03:25:20;;;;;;;17.40;10.07;;;23.80;56.20;;;;;;5018056;28;20488;-88
2021/07/25 03:27:47;;;;;;;35.40;11.27;;;23.80;56.20;;;;;;5018079;28;20818;-88
2021/07/25 03:30:14;;;;;;;15.47;9.83;;;23.60;56.70;;;;;;5030675;28;20437;-88
2021/07/25 03:32:41;;;;;;;24.93;10.40;;;23.60;55.50;;;;;;5038756;28;20504;-88
2021/07/25 03:35:09;;;;;;;22.63;10.47;;;23.80;55.40;;;;;;5039668;28;20418;-88
2021/07/25 03:37:40;;;;;;;21.83;10.63;;;23.90;55.20;;;;;;5040285;28;20422;-88
2021/07/25 03:40:09;;;;;;;22.70;8.90;;;23.80;56.10;;;;;;5030378;28;20441;-87
2021/07/25 03:42:36;;;;;;;14.53;8.73;;;23.60;55.90;;;;;;5029307;28;20458;-87
2021/07/25 03:45:04;;;;;;;27.10;11.47;;;23.60;56.10;;;;;;5022012;28;20438;-88
2021/07/25 03:47:30;;;;;;;20.83;11.03;;;23.60;57.10;;;;;;5017805;28;20490;-88
2021/07/25 03:49:58;;;;;;;29.73;11.60;;;23.30;58.00;;;;;;5018405;28;20519;-88
2021/07/25 03:52:25;;;;;;;26.47;12.30;;;23.40;57.50;;;;;;5017117;28;21064;-88
2021/07/25 03:54:54;;;;;;;24.03;11.53;;;23.40;57.30;;;;;;5016601;28;20458;-88
2021/07/25 03:57:21;;;;;;;20.27;12.30;;;23.30;57.90;;;;;;5017234;28;20508;-88
2021/07/25 03:59:47;;;;;;;23.77;11.20;;;23.30;57.00;;;;;;5017183;28;20513;-88
2021/07/25 04:04:40;;;;;;;20.47;10.73;;;23.40;57.30;;;;;;5053785;23;20489;-89
2021/07/25 04:07:07;;;;;;;18.73;11.50;;;23.40;57.30;;;;;;5038482;28;20203;-88
2021/07/25 04:09:34;;;;;;;17.13;10.33;;;23.50;56.50;;;;;;5038249;28;20422;-89
2021/07/25 04:12:02;;;;;;;24.93;12.07;;;23.40;56.60;;;;;;5039567;28;20501;-90
2021/07/25 04:14:29;;;;;;;21.43;11.87;;;23.50;56.20;;;;;;5039926;28;20469;-89
2021/07/25 04:16:56;;;;;;;16.03;10.23;;;23.60;55.20;;;;;;5040097;28;20430;-89
2021/07/25 04:19:23;;;;;;;23.40;12.20;;;23.70;55.90;;;;;;5040088;28;20442;-89
2021/07/25 04:21:49;;;;;;;20.07;11.87;;;23.80;55.80;;;;;;5039215;28;20435;-89
2021/07/25 04:24:16;;;;;;;16.57;10.70;;;23.70;56.10;;;;;;5039652;28;20522;-89
2021/07/25 04:26:44;;;;;;;26.80;10.80;;;23.70;55.70;;;;;;5038527;28;20441;-89
2021/07/25 04:29:12;;;;;;;17.43;11.00;;;23.80;56.30;;;;;;5039850;28;20445;-88
2021/07/25 04:31:40;;;;;;;16.57;9.50;;;23.80;56.30;;;;;;5039022;28;20461;-89
2021/07/25 04:34:07;;;;;;;16.37;8.20;;;23.70;55.50;;;;;;5039621;28;20493;-90
2021/07/25 04:36:35;;;;;;;17.43;10.80;;;23.80;55.10;;;;;;5039773;28;20531;-91
2021/07/25 04:39:03;;;;;;;21.27;11.87;;;23.70;56.10;;;;;;5027982;28;20481;-90
2021/07/25 04:41:37;;;;;;;25.93;11.20;;;23.60;56.50;;;;;;5029839;28;20442;-89
2021/07/25 04:44:08;;;;;;;19.10;11.07;;;23.50;56.30;;;;;;5038472;28;20485;-92
2021/07/25 04:46:44;;;;;;;18.63;12.43;;;23.70;56.90;;;;;;5040099;28;20438;-92
2021/07/25 04:49:14;;;;;;;29.73;12.80;;;23.80;56.40;;;;;;5040031;28;20409;-92
2021/07/25 04:51:43;;;;;;;17.80;12.17;;;23.70;57.10;;;;;;5039703;28;20442;-92
2021/07/25 04:54:12;;;;;;;27.03;11.60;;;23.70;57.30;;;;;;5039283;28;20461;-93
2021/07/25 04:56:52;;;;;;;21.17;12.00;;;23.80;57.20;;;;;;5028126;28;20454;-90
2021/07/25 04:59:22;;;;;;;21.07;11.53;;;24.00;57.10;;;;;;5025126;28;20446;-90
2021/07/25 05:01:53;;;;;;;23.70;11.93;;;24.20;56.50;;;;;;5039490;28;20465;-92
2021/07/25 05:04:22;;;;;;;32.63;12.33;;;24.30;56.10;;;;;;5039590;28;20478;-94
2021/07/25 05:06:50;;;;;;;18.07;12.43;;;24.30;55.60;;;;;;5039532;28;20430;-92
2021/07/25 05:09:17;;;;;;;22.97;11.83;;;24.40;55.40;;;;;;5039603;28;20411;-92
2021/07/25 05:11:48;;;;;;;23.67;11.93;;;24.50;55.00;;;;;;5037773;28;20450;-90
2021/07/25 05:14:20;;;;;;;25.23;11.53;;;24.50;55.80;;;;;;5036806;28;20485;-90
2021/07/25 05:16:56;;;;;;;19.67;10.20;;;24.60;55.20;;;;;;5037312;28;20438;-90
2021/07/25 05:19:28;;;;;;;17.20;11.70;;;24.60;55.20;;;;;;5037373;28;20421;-90
2021/07/25 05:22:02;;;;;;;20.67;11.93;;;24.70;55.10;;;;;;5036848;28;20486;-90
2021/07/25 05:24:30;;;;;;;16.17;11.27;;;25.10;54.10;;;;;;5037794;28;20442;-90
2021/07/25 05:27:02;;;;;;;24.80;11.97;;;25.10;54.50;;;;;;5038386;28;20434;-89
2021/07/25 05:29:32;;;;;;;16.03;10.73;;;25.20;54.40;;;;;;5037302;28;20425;-90
2021/07/25 05:32:00;;;;;;;16.60;10.93;;;25.10;54.10;;;;;;5037806;28;20411;-91
2021/07/25 05:34:27;;;;;;;22.63;12.00;;;24.90;55.30;;;;;;5037148;28;20466;-91
2021/07/25 05:36:54;;;;;;;19.43;10.73;;;25.00;54.30;;;;;;5035625;28;20450;-89
2021/07/25 05:39:21;;;;;;;20.47;10.03;;;25.10;54.30;;;;;;5023441;28;20446;-89
2021/07/25 05:41:48;;;;;;;16.70;9.67;;;25.20;53.90;;;;;;5019760;28;20494;-90
2021/07/25 05:44:15;;;;;;;19.83;10.03;;;25.50;53.90;;;;;;5020349;28;20535;-90
2021/07/25 05:46:42;;;;;;;17.17;9.17;;;26.10;54.50;;;;;;5020646;28;20430;-91
2021/07/25 05:49:11;;;;;;;17.33;9.47;;;27.20;50.60;;;;;;5019494;28;20508;-91
2021/07/25 05:51:38;;;;;;;16.80;8.33;;;27.80;51.00;;;;;;5020060;28;20456;-92
2021/07/25 05:54:04;;;;;;;22.13;8.53;;;28.70;48.30;;;;;;5017293;28;20543;-91
2021/07/25 05:56:31;;;;;;;18.73;7.00;;;29.70;45.00;;;;;;5019122;28;20454;-90
2021/07/25 05:58:58;;;;;;;10.87;6.93;;;30.00;43.10;;;;;;5016313;28;20438;-91
2021/07/25 06:01:25;;;;;;;15.57;6.80;;;30.30;40.70;;;;;;5014837;28;20530;-91
2021/07/25 06:03:52;;;;;;;14.27;6.37;;;30.40;42.00;;;;;;5015284;28;20470;-91
2021/07/25 06:06:20;;;;;;;12.67;6.83;;;30.80;40.40;;;;;;5016415;28;20453;-91
2021/07/25 06:08:47;;;;;;;8.53;6.33;;;31.70;39.60;;;;;;5016013;28;20476;-91
2021/07/25 06:11:21;;;;;;;13.20;7.03;;;31.80;40.20;;;;;;5016699;28;20464;-89
2021/07/25 06:13:48;;;;;;;11.30;6.37;;;32.90;36.80;;;;;;5017815;28;20567;-89
2021/07/25 06:16:16;;;;;;;8.73;5.90;;;32.30;36.10;;;;;;5017224;28;20466;-89
2021/07/25 06:18:45;;;;;;;12.53;6.83;;;32.10;36.80;;;;;;5018576;28;20482;-89
2021/07/25 06:21:12;;;;;;;12.47;7.47;;;31.40;37.40;;;;;;5018786;28;20930;-90
2021/07/25 06:23:41;;;;;;;9.40;6.47;;;29.80;40.00;;;;;;5018840;28;20520;-90
2021/07/25 06:26:08;;;;;;;11.70;6.80;;;29.20;41.30;;;;;;5018845;28;20516;-91
2021/07/25 06:28:35;;;;;;;14.30;6.90;;;28.90;43.10;;;;;;5019345;28;20446;-89
2021/07/25 06:31:02;;;;;;;13.10;6.40;;;28.80;44.40;;;;;;5018297;28;20543;-90
2021/07/25 06:33:29;;;;;;;13.80;6.70;;;30.50;40.50;;;;;;5019553;28;20489;-90
2021/07/25 06:35:57;;;;;;;12.23;7.00;;;30.70;38.30;;;;;;5024574;28;20497;-89
2021/07/25 06:38:24;;;;;;;11.30;6.80;;;30.00;40.50;;;;;;5021021;28;20453;-90
2021/07/25 06:40:55;;;;;;;11.40;6.13;;;30.30;40.10;;;;;;5022928;28;20916;-90
2021/07/25 06:43:24;;;;;;;12.43;5.77;;;31.30;37.80;;;;;;5023037;28;20518;-90
2021/07/25 06:45:51;;;;;;;25.43;6.10;;;31.60;38.60;;;;;;5034321;28;20434;-91
2021/07/25 06:48:19;;;;;;;11.33;6.30;;;31.80;36.50;;;;;;5036242;28;20454;-92
2021/07/25 06:50:48;;;;;;;12.60;6.50;;;32.00;36.30;;;;;;5034725;28;20886;-91
2021/07/25 06:53:16;;;;;;;10.67;6.20;;;32.40;35.50;;;;;;5032472;28;20544;-92
2021/07/25 06:55:43;;;;;;;11.47;5.50;;;32.30;35.10;;;;;;5040637;28;20434;-94
2021/07/25 06:58:11;;;;;;;9.73;5.67;;;32.20;36.30;;;;;;5040683;28;20426;-90
2021/07/25 07:00:38;;;;;;;7.80;5.77;;;32.10;34.70;;;;;;5041017;28;20457;-92
2021/07/25 07:03:05;;;;;;;7.00;4.97;;;32.10;35.00;;;;;;5036978;28;20497;-90
2021/07/25 07:05:34;;;;;;;15.03;6.60;;;32.40;35.00;;;;;;5019493;28;20536;-90
2021/07/25 07:08:02;;;;;;;13.33;6.10;;;31.80;34.20;;;;;;5021086;28;20995;-90
2021/07/25 07:10:31;;;;;;;9.53;6.33;;;31.50;34.90;;;;;;5019182;28;20450;-91
2021/07/25 07:13:02;;;;;;;9.80;6.20;;;31.00;36.20;;;;;;5019528;28;20488;-90
2021/07/25 07:15:31;;;;;;;9.63;6.10;;;30.90;36.20;;;;;;5019688;28;20785;-90
2021/07/25 07:18:00;;;;;;;15.00;7.30;;;30.30;37.50;;;;;;5020728;28;20434;-90
2021/07/25 07:20:28;;;;;;;17.70;7.50;;;29.40;39.60;;;;;;5019216;28;20973;-90
2021/07/25 07:22:57;;;;;;;13.93;6.70;;;28.70;41.60;;;;;;5019455;28;20816;-91
2021/07/25 07:25:26;;;;;;;10.63;6.83;;;28.00;43.40;;;;;;5018393;28;20484;-91
2021/07/25 07:27:53;;;;;;;17.10;7.43;;;27.70;44.10;;;;;;5017815;28;20486;-91
2021/07/25 07:30:21;;;;;;;12.53;6.90;;;27.90;44.70;;;;;;5017007;28;20476;-91
2021/07/25 07:32:49;;;;;;;12.47;7.13;;;27.10;45.90;;;;;;5017567;28;20501;-91
2021/07/25 07:35:21;;;;;;;21.70;8.70;;;26.80;46.60;;;;;;5017628;28;20801;-92
2021/07/25 07:37:49;;;;;;;18.30;8.03;;;27.10;46.30;;;;;;5018988;28;20562;-91
2021/07/25 07:40:16;;;;;;;12.67;7.50;;;27.40;45.80;;;;;;5023194;28;20816;-91
2021/07/25 07:42:43;;;;;;;13.53;8.20;;;27.30;45.10;;;;;;5018411;28;20847;-91
2021/07/25 07:45:11;;;;;;;14.83;7.50;;;27.30;45.30;;;;;;5017596;28;20489;-91
2021/07/25 07:47:38;;;;;;;13.37;7.00;;;27.10;44.80;;;;;;5017743;28;20454;-91
2021/07/25 07:50:08;;;;;;;18.87;6.80;;;27.00;45.70;;;;;;5018291;28;20454;-91
2021/07/25 07:52:35;;;;;;;15.43;7.27;;;27.00;45.60;;;;;;5017793;28;20851;-91
2021/07/25 07:55:02;;;;;;;22.60;8.27;;;26.60;46.90;;;;;;5018003;28;20481;-91
2021/07/25 07:57:29;;;;;;;13.17;7.87;;;26.70;46.10;;;;;;5018064;28;20473;-91
2021/07/25 07:59:55;;;;;;;17.77;8.10;;;27.10;45.50;;;;;;5017494;28;20773;-91
2021/07/25 08:02:22;;;;;;;17.93;8.50;;;27.50;45.10;;;;;;5017537;28;20468;-92
2021/07/25 08:04:49;;;;;;;12.30;7.07;;;27.50;45.30;;;;;;5017636;28;20442;-91
2021/07/25 08:07:18;;;;;;;10.37;6.87;;;27.40;45.20;;;;;;5017464;28;20462;-91
2021/07/25 08:09:45;;;;;;;12.73;8.27;;;27.50;44.80;;;;;;5017530;28;20442;-92
2021/07/25 08:12:12;;;;;;;11.40;7.13;;;27.70;44.90;;;;;;5018712;28;20454;-91
2021/07/25 08:14:39;;;;;;;8.63;7.27;;;28.00;44.50;;;;;;5017556;28;20549;-91
2021/07/25 08:17:06;;;;;;;13.70;7.30;;;28.50;44.10;;;;;;5017757;28;20466;-91
2021/07/25 08:19:33;;;;;;;16.00;6.60;;;28.70;43.20;;;;;;5017973;28;20520;-91
2021/07/25 08:22:02;;;;;;;25.43;6.90;;;29.00;42.60;;;;;;5017307;28;20430;-91
2021/07/25 08:24:33;;;;;;;10.10;7.17;;;28.70;42.20;;;;;;5018699;28;20477;-91
2021/07/25 08:27:00;;;;;;;7.93;6.57;;;28.80;41.90;;;;;;5019121;28;20454;-91
2021/07/25 08:29:28;;;;;;;16.83;7.90;;;28.40;42.20;;;;;;5029970;28;20458;-91
2021/07/25 08:31:57;;;;;;;13.40;7.20;;;28.40;42.70;;;;;;5021462;28;20804;-91
2021/07/25 08:34:25;;;;;;;13.73;7.30;;;28.50;42.80;;;;;;5018340;28;20478;-91
2021/07/25 08:36:52;;;;;;;12.83;6.80;;;28.50;42.50;;;;;;5017836;28;20458;-91
2021/07/25 08:39:20;;;;;;;11.53;6.70;;;28.60;42.10;;;;;;5016423;28;20466;-91
2021/07/25 08:42:04;;;;;;;9.27;7.20;;;28.20;42.60;;;;;;5016784;28;20469;-91
2021/07/25 08:44:47;;;;;;;10.93;6.60;;;28.30;42.10;;;;;;5016211;28;20460;-91
2021/07/25 08:47:21;;;;;;;15.53;6.60;;;28.30;42.00;;;;;;5016397;28;20480;-91
2021/07/25 08:49:55;;;;;;;16.17;8.20;;;28.50;42.50;;;;;;5016797;28;20488;-92
2021/07/25 08:52:24;;;;;;;10.30;5.80;;;28.50;41.70;;;;;;5016419;28;20500;-92
2021/07/25 08:54:51;;;;;;;13.00;6.47;;;28.50;41.30;;;;;;5016205;28;20538;-91
2021/07/25 08:57:22;;;;;;;9.50;6.70;;;28.80;41.40;;;;;;5016290;28;20518;-92
2021/07/25 08:59:51;;;;;;;10.93;6.50;;;28.60;40.90;;;;;;5016948;28;20541;-92
2021/07/25 09:02:21;;;;;;;18.03;6.43;;;28.30;42.10;;;;;;5016351;28;20495;-93
2021/07/25 09:04:49;;;;;;;13.00;7.37;;;28.20;42.30;;;;;;5016439;28;20450;-91
2021/07/25 09:07:17;;;;;;;9.20;6.40;;;28.40;41.60;;;;;;5016692;28;20454;-91
2021/07/25 09:09:46;;;;;;;14.60;6.70;;;28.70;41.10;;;;;;5016325;28;20481;-92
2021/07/25 09:12:15;;;;;;;14.43;7.10;;;28.70;41.30;;;;;;5015567;28;20454;-91
2021/07/25 09:14:46;;;;;;;15.90;7.40;;;28.10;42.00;;;;;;5016547;28;20543;-91
2021/07/25 09:17:13;;;;;;;10.93;6.53;;;28.20;42.60;;;;;;5015946;28;20869;-91
2021/07/25 09:20:20;;;;;;;14.27;7.37;;;28.10;42.70;;;;;;5016244;28;20461;-91
2021/07/25 09:23:13;;;;;;;9.97;7.00;;;28.30;42.40;;;;;;5012705;28;20477;-91
2021/07/25 09:25:45;;;;;;;14.63;6.83;;;27.90;41.80;;;;;;5006874;28;20496;-91
2021/07/25 09:28:29;;;;;;;16.33;7.80;;;27.90;42.60;;;;;;5016436;28;20470;-91
2021/07/25 09:31:12;;;;;;;16.60;7.73;;;27.80;42.60;;;;;;5016240;28;20414;-91
2021/07/25 09:33:43;;;;;;;15.50;7.27;;;27.70;42.90;;;;;;5016862;28;20496;-93
2021/07/25 09:36:19;;;;;;;13.30;7.70;;;27.60;42.40;;;;;;5017594;28;20496;-92
2021/07/25 09:38:48;;;;;;;11.10;7.27;;;27.70;43.20;;;;;;5016609;28;20473;-91
2021/07/25 09:41:23;;;;;;;15.00;7.50;;;28.20;43.20;;;;;;5016222;28;20822;-91
2021/07/25 09:44:08;;;;;;;17.03;7.83;;;28.30;43.20;;;;;;5016934;28;20531;-91
2021/07/25 09:46:49;;;;;;;10.30;7.10;;;28.30;42.70;;;;;;5017346;28;20868;-91
2021/07/25 09:49:17;;;;;;;10.17;6.77;;;28.20;42.60;;;;;;5016764;28;20454;-92
2021/07/25 09:51:45;;;;;;;9.33;6.73;;;28.40;42.90;;;;;;5016570;28;20473;-92
2021/07/25 09:54:12;;;;;;;9.83;6.60;;;28.40;42.50;;;;;;5018079;28;20473;-91
2021/07/25 09:56:40;;;;;;;14.57;7.07;;;28.40;43.10;;;;;;5016729;28;20461;-91
2021/07/25 09:59:26;;;;;;;18.07;7.27;;;28.50;42.30;;;;;;5017760;28;20450;-91
2021/07/25 10:01:54;;;;;;;18.57;7.30;;;28.60;42.40;;;;;;5017221;28;20537;-90
2021/07/25 10:04:24;;;;;;;13.90;7.33;;;28.30;42.60;;;;;;5038198;23;20497;-90
2021/07/25 10:06:53;;;;;;;9.93;6.50;;;28.50;42.80;;;;;;5033772;28;20449;-89
2021/07/25 10:09:25;;;;;;;11.70;6.70;;;28.50;42.50;;;;;;5034065;28;20834;-88
2021/07/25 10:11:58;;;;;;;12.03;6.83;;;28.50;42.40;;;;;;5034815;28;20433;-89
2021/07/25 10:14:29;;;;;;;10.40;6.93;;;28.50;42.90;;;;;;5023348;28;20521;-89
2021/07/25 10:16:59;;;;;;;8.07;5.87;;;28.60;42.80;;;;;;5014373;28;20927;-89
2021/07/25 10:19:29;;;;;;;10.37;7.00;;;28.90;42.10;;;;;;5014443;28;20536;-89
2021/07/25 10:21:57;;;;;;;11.67;7.00;;;28.90;42.10;;;;;;5014727;28;20454;-88
2021/07/25 10:24:26;;;;;;;12.23;6.73;;;29.00;42.00;;;;;;5013390;28;20929;-89
2021/07/25 10:26:54;;;;;;;9.23;5.83;;;28.70;42.30;;;;;;5014140;28;20450;-89
2021/07/25 10:29:23;;;;;;;10.47;6.20;;;28.60;43.40;;;;;;5013944;28;20434;-89
2021/07/25 10:31:51;;;;;;;12.57;7.07;;;28.60;42.80;;;;;;5014671;28;20456;-88
2021/07/25 10:34:20;;;;;;;13.83;6.87;;;28.70;42.70;;;;;;5014259;28;20481;-88
2021/07/25 10:36:48;;;;;;;9.90;6.60;;;28.60;42.60;;;;;;5014421;28;20458;-88
2021/07/25 10:39:16;;;;;;;6.73;5.50;;;28.50;43.40;;;;;;5014444;28;20553;-88
2021/07/25 10:41:50;;;;;;;15.33;6.23;;;28.30;42.80;;;;;;5013840;28;20540;-88
2021/07/25 10:44:18;;;;;;;10.53;6.93;;;28.30;42.50;;;;;;5017248;28;20474;-88
2021/07/25 10:46:45;;;;;;;9.60;7.07;;;28.10;43.40;;;;;;5015721;28;20650;-90
2021/07/25 10:49:16;;;;;;;11.53;6.97;;;28.00;43.90;;;;;;5014296;28;20454;-89
2021/07/25 10:51:58;;;;;;;14.57;6.80;;;27.90;43.80;;;;;;5014595;28;20458;-88
2021/07/25 10:54:49;;;;;;;12.40;6.90;;;28.20;43.40;;;;;;5014031;28;20561;-88
2021/07/25 10:57:20;;;;;;;11.60;6.40;;;28.40;43.70;;;;;;5010381;28;20509;-88
2021/07/25 10:59:50;;;;;;;12.10;7.13;;;28.30;43.30;;;;;;5015430;28;20954;-89
2021/07/25 11:02:49;;;;;;;9.07;5.97;;;28.20;43.20;;;;;;5014347;28;20911;-89
2021/07/25 11:05:17;;;;;;;7.97;5.60;;;28.40;42.50;;;;;;5006751;28;20564;-89
2021/07/25 11:07:57;;;;;;;14.80;7.13;;;28.40;42.60;;;;;;5014210;28;20544;-89
2021/07/25 11:10:34;;;;;;;9.40;6.20;;;28.30;42.60;;;;;;5013907;28;20438;-88
2021/07/25 11:13:19;;;;;;;10.23;6.83;;;28.40;42.70;;;;;;5014021;28;20438;-89
2021/07/25 11:15:46;;;;;;;9.60;6.17;;;28.60;42.30;;;;;;5013257;28;20524;-89
2021/07/25 11:18:29;;;;;;;11.03;5.93;;;28.60;42.60;;;;;;5014021;28;20470;-89
2021/07/25 11:21:03;;;;;;;9.23;6.03;;;28.70;42.30;;;;;;5014864;28;20575;-88
2021/07/25 11:23:36;;;;;;;11.00;5.53;;;28.60;41.90;;;;;;5013768;28;20465;-88
2021/07/25 11:26:33;;;;;;;12.17;6.37;;;28.60;42.10;;;;;;5013541;28;20430;-89
2021/07/25 11:29:01;;;;;;;15.73;7.23;;;28.60;42.00;;;;;;5013874;28;20454;-88
2021/07/25 11:31:47;;;;;;;10.53;6.03;;;28.60;42.00;;;;;;5013781;28;20492;-88
2021/07/25 11:34:24;;;;;;;10.73;6.30;;;28.50;42.20;;;;;;5013672;28;20494;-89
2021/07/25 11:36:53;;;;;;;9.73;6.27;;;28.20;42.50;;;;;;5017214;28;20922;-89
2021/07/25 11:39:22;;;;;;;14.30;6.90;;;27.80;43.70;;;;;;5017324;28;20452;-89
2021/07/25 11:41:50;;;;;;;12.67;6.40;;;28.10;43.70;;;;;;5017260;28;20534;-89
2021/07/25 11:44:25;;;;;;;9.63;6.37;;;28.10;42.80;;;;;;5017031;28;20473;-89
2021/07/25 11:46:52;;;;;;;11.83;6.70;;;27.80;43.70;;;;;;5016940;28;20469;-89
2021/07/25 11:49:20;;;;;;;8.90;5.90;;;27.90;43.50;;;;;;5016944;28;20955;-89
2021/07/25 11:51:57;;;;;;;13.00;6.93;;;27.70;43.60;;;;;;5016945;28;20502;-89
2021/07/25 11:54:28;;;;;;;13.87;6.30;;;27.80;43.10;;;;;;5016864;28;20516;-89
2021/07/25 11:56:57;;;;;;;10.13;6.80;;;27.70;43.60;;;;;;5017147;28;20436;-89
2021/07/25 11:59:24;;;;;;;12.27;7.00;;;27.20;43.80;;;;;;5016986;28;20454;-89
2021/07/25 12:01:51;;;;;;;12.63;6.67;;;27.00;44.80;;;;;;5016878;28;20478;-89
2021/07/25 12:04:20;;;;;;;12.97;7.37;;;27.10;44.70;;;;;;5017226;28;21048;-89
2021/07/25 12:06:47;;;;;;;12.37;6.37;;;26.90;45.00;;;;;;5016872;28;20449;-90
2021/07/25 12:09:14;;;;;;;14.07;7.30;;;26.90;45.60;;;;;;5016728;28;20430;-89
2021/07/25 12:11:42;;;;;;;13.40;7.70;;;27.10;45.90;;;;;;5016520;28;20454;-89
2021/07/25 12:14:09;;;;;;;11.77;8.20;;;26.50;47.70;;;;;;5017198;28;20553;-89
2021/07/25 12:16:47;;;;;;;10.33;7.70;;;26.30;49.50;;;;;;5016413;28;20540;-90
2021/07/25 12:19:18;;;;;;;12.13;7.77;;;26.60;48.70;;;;;;5017220;28;20553;-90
2021/07/25 12:21:46;;;;;;;13.00;7.67;;;26.80;48.80;;;;;;5016544;28;20513;-90
2021/07/25 12:24:26;;;;;;;16.00;8.50;;;26.70;48.30;;;;;;5016450;28;20474;-90
2021/07/25 12:26:56;;;;;;;12.63;7.90;;;26.90;48.40;;;;;;5016621;28;20454;-90
2021/07/25 12:29:36;;;;;;;16.27;6.93;;;27.00;48.10;;;;;;5016564;28;20466;-90
2021/07/25 12:32:36;;;;;;;12.10;8.00;;;26.90;49.10;;;;;;5016347;28;20464;-90
2021/07/25 12:38:12;;;;;;;11.07;7.80;;;26.90;50.40;;;;;;5015113;28;20449;-90
2021/07/25 12:40:49;;;;;;;12.30;7.93;;;26.90;48.40;;;;;;5016320;28;20427;-90
2021/07/25 12:43:23;;;;;;;15.37;7.93;;;26.70;49.60;;;;;;5016211;28;20531;-90
2021/07/25 12:46:19;;;;;;;12.10;7.90;;;27.20;50.00;;;;;;5016379;28;20427;-90
2021/07/25 12:49:19;;;;;;;13.57;8.20;;;27.30;49.20;;;;;;4998279;28;20875;-90
2021/07/25 12:51:51;;;;;;;16.60;7.90;;;27.30;50.10;;;;;;5016732;28;20469;-90
2021/07/25 12:54:52;;;;;;;18.23;7.80;;;27.20;51.00;;;;;;5015812;28;20473;-90